Aérodrome :
LOGIN :

S'inscrire | Disclaimer

   EN    FR    IT 

 










Légende :    VFR   VFR Marginal   IFR   IFR Intensif   IFR Très Intensif
Visi : 
Plafond : 
>= 8 km
>= 3000ft
5 à 8 km
1000 à 3000 ft
1500m à 5 km
500 à 1000 ft
800 à 1500m
200 à 500 ft
< 800m
< 200 ft
Symboles :   Orages  Brouillard  Fortes neiges  Fortes précipitations  Vent > 20 kt
SIGMETs :   Divers  Orages  Givrage  Turbulence  Onde Orograph.  Cendres Volcan.






- Altitude de l'aérodrome : 239 ft
- Code IATA : VRN


LIPX - Villafranca Int. Verona

DERNIER METAR :
  • 200750Z 05004KT 020V080 CAVOK 17/14 Q1018

METARs EXPIRÉS :
  • 200720Z 01005KT CAVOK 16/15 Q1018
  • 200650Z 36005KT CAVOK 14/14 Q1018
  • 200620Z VRB02KT CAVOK 13/12 Q1017
  • 200550Z VRB02KT CAVOK 12/12 Q1017
  • 200520Z 35002KT CAVOK 12/11 Q1017

TAF TAF LIPX
Valide du 20 à 06h jusqu'au 20 à 15h UTC


200500Z 2006/2015 07008KT 8000 SCT040



MET'MAP, la Météo Aéronautique d'un coup d'oeil ! - Copyright ORBIFLY Décembre 2007 - Disclaimer

ORBIFLY MET'MAP TEAM :

Programmation & Développement : Alexandra Zaïnal
Conception & Développement : Baudouin d'Aumeries
Co-Programmation & Développement : Marc-Olivier Méhu
Soutien technique & logistique : Manuel Goepfert

Contact : metmap@orbifly.com




SOURCES & CREDITS :

   NOAA